sensor_id;sensor_type;location;lat;lon;timestamp;temperature;humidity
698;DHT22;331;48.414;9.938;2023-02-08T00:01:35;-1.20;99.90
698;DHT22;331;48.414;9.938;2023-02-08T00:04:01;-1.20;99.90
698;DHT22;331;48.414;9.938;2023-02-08T00:06:28;-1.20;99.90
698;DHT22;331;48.414;9.938;2023-02-08T00:08:56;-1.20;99.90
698;DHT22;331;48.414;9.938;2023-02-08T00:11:27;-1.20;99.90
698;DHT22;331;48.414;9.938;2023-02-08T00:13:53;-1.20;99.90
698;DHT22;331;48.414;9.938;2023-02-08T00:16:20;-1.20;99.90
698;DHT22;331;48.414;9.938;2023-02-08T00:18:47;-1.20;99.90
698;DHT22;331;48.414;9.938;2023-02-08T00:21:14;-1.20;99.90
698;DHT22;331;48.414;9.938;2023-02-08T00:23:41;-1.20;99.90
698;DHT22;331;48.414;9.938;2023-02-08T00:26:10;-1.20;99.90
698;DHT22;331;48.414;9.938;2023-02-08T00:28:38;-1.20;99.90
698;DHT22;331;48.414;9.938;2023-02-08T00:31:05;-1.20;99.90
698;DHT22;331;48.414;9.938;2023-02-08T00:33:33;-1.30;99.90
698;DHT22;331;48.414;9.938;2023-02-08T00:36:00;-1.30;99.90
698;DHT22;331;48.414;9.938;2023-02-08T00:38:27;-1.30;99.90
698;DHT22;331;48.414;9.938;2023-02-08T00:40:54;-1.30;99.90
698;DHT22;331;48.414;9.938;2023-02-08T00:43:24;-1.30;99.90
698;DHT22;331;48.414;9.938;2023-02-08T00:45:52;-1.30;99.90
698;DHT22;331;48.414;9.938;2023-02-08T00:48:19;-1.30;99.90
698;DHT22;331;48.414;9.938;2023-02-08T00:50:55;-1.30;99.90
698;DHT22;331;48.414;9.938;2023-02-08T00:53:22;-1.30;99.90
698;DHT22;331;48.414;9.938;2023-02-08T00:55:49;-1.30;99.90
698;DHT22;331;48.414;9.938;2023-02-08T00:58:16;-1.30;99.90
698;DHT22;331;48.414;9.938;2023-02-08T01:00:44;-1.30;99.90
698;DHT22;331;48.414;9.938;2023-02-08T01:03:11;-1.30;99.90
698;DHT22;331;48.414;9.938;2023-02-08T01:05:38;-1.30;99.90
698;DHT22;331;48.414;9.938;2023-02-08T01:08:05;-1.30;99.90
698;DHT22;331;48.414;9.938;2023-02-08T01:10:32;-1.30;99.90
698;DHT22;331;48.414;9.938;2023-02-08T01:12:59;-1.30;99.90
698;DHT22;331;48.414;9.938;2023-02-08T01:15:26;-1.40;99.90
698;DHT22;331;48.414;9.938;2023-02-08T01:17:54;-1.30;99.90
698;DHT22;331;48.414;9.938;2023-02-08T01:20:21;-1.40;99.90
698;DHT22;331;48.414;9.938;2023-02-08T01:22:49;-1.40;99.90
698;DHT22;331;48.414;9.938;2023-02-08T01:25:15;-1.40;99.90
698;DHT22;331;48.414;9.938;2023-02-08T01:27:42;-1.40;99.90
698;DHT22;331;48.414;9.938;2023-02-08T01:30:10;-1.40;99.90
698;DHT22;331;48.414;9.938;2023-02-08T01:32:37;-1.40;99.90
698;DHT22;331;48.414;9.938;2023-02-08T01:35:05;-1.40;99.90
698;DHT22;331;48.414;9.938;2023-02-08T01:37:32;-1.40;99.90
698;DHT22;331;48.414;9.938;2023-02-08T01:39:59;-1.40;99.90
698;DHT22;331;48.414;9.938;2023-02-08T01:42:25;-1.40;99.90
698;DHT22;331;48.414;9.938;2023-02-08T01:47:55;-1.40;99.90
698;DHT22;331;48.414;9.938;2023-02-08T01:50:25;-1.50;99.90
698;DHT22;331;48.414;9.938;2023-02-08T01:52:55;-1.50;99.90
698;DHT22;331;48.414;9.938;2023-02-08T01:55:22;-1.50;99.90
698;DHT22;331;48.414;9.938;2023-02-08T01:57:52;-1.50;99.90
698;DHT22;331;48.414;9.938;2023-02-08T02:00:20;-1.50;99.90
698;DHT22;331;48.414;9.938;2023-02-08T02:02:47;-1.50;99.90
698;DHT22;331;48.414;9.938;2023-02-08T02:05:18;-1.50;99.90
698;DHT22;331;48.414;9.938;2023-02-08T02:07:47;-1.50;99.90
698;DHT22;331;48.414;9.938;2023-02-08T02:10:17;-1.50;99.90
698;DHT22;331;48.414;9.938;2023-02-08T02:12:45;-1.50;99.90
698;DHT22;331;48.414;9.938;2023-02-08T02:15:12;-1.50;99.90
698;DHT22;331;48.414;9.938;2023-02-08T02:17:39;-1.50;99.90
698;DHT22;331;48.414;9.938;2023-02-08T02:20:09;-1.50;99.90
698;DHT22;331;48.414;9.938;2023-02-08T02:22:59;-1.50;99.90
698;DHT22;331;48.414;9.938;2023-02-08T02:28:29;-1.60;99.90
698;DHT22;331;48.414;9.938;2023-02-08T02:31:09;-1.60;99.90
698;DHT22;331;48.414;9.938;2023-02-08T02:33:45;-1.60;99.90
698;DHT22;331;48.414;9.938;2023-02-08T02:36:16;-1.60;99.90
698;DHT22;331;48.414;9.938;2023-02-08T02:38:48;-1.60;99.90
698;DHT22;331;48.414;9.938;2023-02-08T02:41:18;-1.60;99.90
698;DHT22;331;48.414;9.938;2023-02-08T02:44:01;-1.60;99.90
698;DHT22;331;48.414;9.938;2023-02-08T02:46:32;-1.60;99.90
698;DHT22;331;48.414;9.938;2023-02-08T02:49:05;-1.60;99.90
698;DHT22;331;48.414;9.938;2023-02-08T02:51:35;-1.60;99.90
698;DHT22;331;48.414;9.938;2023-02-08T02:54:05;-1.60;99.90
698;DHT22;331;48.414;9.938;2023-02-08T02:56:33;-1.60;99.90
698;DHT22;331;48.414;9.938;2023-02-08T02:59:03;-1.60;99.90
698;DHT22;331;48.414;9.938;2023-02-08T03:01:31;-1.60;99.90
698;DHT22;331;48.414;9.938;2023-02-08T03:03:58;-1.70;99.90
698;DHT22;331;48.414;9.938;2023-02-08T03:06:32;-1.70;99.90
698;DHT22;331;48.414;9.938;2023-02-08T03:09:15;-1.70;99.90
698;DHT22;331;48.414;9.938;2023-02-08T03:11:48;-1.70;99.90
698;DHT22;331;48.414;9.938;2023-02-08T03:14:23;-1.70;99.90
698;DHT22;331;48.414;9.938;2023-02-08T03:16:59;-1.70;99.90
698;DHT22;331;48.414;9.938;2023-02-08T03:19:30;-1.70;99.90
698;DHT22;331;48.414;9.938;2023-02-08T03:22:01;-1.70;99.90
698;DHT22;331;48.414;9.938;2023-02-08T03:24:32;-1.70;99.90
698;DHT22;331;48.414;9.938;2023-02-08T03:27:03;-1.70;99.90
698;DHT22;331;48.414;9.938;2023-02-08T03:29:36;-1.70;99.90
698;DHT22;331;48.414;9.938;2023-02-08T03:32:08;-1.70;99.90
698;DHT22;331;48.414;9.938;2023-02-08T03:34:38;-1.70;99.90
698;DHT22;331;48.414;9.938;2023-02-08T03:37:11;-1.70;99.90
698;DHT22;331;48.414;9.938;2023-02-08T03:39:39;-1.70;99.90
698;DHT22;331;48.414;9.938;2023-02-08T03:42:07;-1.80;99.90
698;DHT22;331;48.414;9.938;2023-02-08T03:44:35;-1.70;99.90
698;DHT22;331;48.414;9.938;2023-02-08T03:47:05;-1.80;99.90
698;DHT22;331;48.414;9.938;2023-02-08T03:49:34;-1.80;99.90
698;DHT22;331;48.414;9.938;2023-02-08T03:52:03;-1.70;99.90
698;DHT22;331;48.414;9.938;2023-02-08T03:54:34;-1.70;99.90
698;DHT22;331;48.414;9.938;2023-02-08T03:57:03;-1.80;99.90
698;DHT22;331;48.414;9.938;2023-02-08T03:59:31;-1.80;99.90
698;DHT22;331;48.414;9.938;2023-02-08T04:02:01;-1.80;99.90
698;DHT22;331;48.414;9.938;2023-02-08T04:04:30;-1.80;99.90
698;DHT22;331;48.414;9.938;2023-02-08T04:06:58;-1.80;99.90
698;DHT22;331;48.414;9.938;2023-02-08T04:09:25;-1.80;99.90
698;DHT22;331;48.414;9.938;2023-02-08T04:11:53;-1.80;99.90
698;DHT22;331;48.414;9.938;2023-02-08T04:14:20;-1.80;99.90
698;DHT22;331;48.414;9.938;2023-02-08T04:16:46;-1.80;99.90
698;DHT22;331;48.414;9.938;2023-02-08T04:19:13;-1.80;99.90
698;DHT22;331;48.414;9.938;2023-02-08T04:21:42;-1.80;99.90
698;DHT22;331;48.414;9.938;2023-02-08T04:24:09;-1.80;99.90
698;DHT22;331;48.414;9.938;2023-02-08T04:26:35;-1.90;99.90
698;DHT22;331;48.414;9.938;2023-02-08T04:29:04;-1.80;99.90
698;DHT22;331;48.414;9.938;2023-02-08T04:31:30;-1.90;99.90
698;DHT22;331;48.414;9.938;2023-02-08T04:33:57;-1.90;99.90
698;DHT22;331;48.414;9.938;2023-02-08T04:36:24;-1.90;99.90
698;DHT22;331;48.414;9.938;2023-02-08T04:38:51;-1.90;99.90
698;DHT22;331;48.414;9.938;2023-02-08T04:41:18;-1.90;99.90
698;DHT22;331;48.414;9.938;2023-02-08T04:43:45;-1.90;99.90
698;DHT22;331;48.414;9.938;2023-02-08T04:46:13;-1.90;99.90
698;DHT22;331;48.414;9.938;2023-02-08T04:48:40;-1.90;99.90
698;DHT22;331;48.414;9.938;2023-02-08T04:51:06;-1.90;99.90
698;DHT22;331;48.414;9.938;2023-02-08T04:53:33;-1.90;99.90
698;DHT22;331;48.414;9.938;2023-02-08T04:56:00;-1.90;99.90
698;DHT22;331;48.414;9.938;2023-02-08T04:58:27;-1.90;99.90
698;DHT22;331;48.414;9.938;2023-02-08T05:00:54;-1.90;99.90
698;DHT22;331;48.414;9.938;2023-02-08T05:03:22;-2.00;99.90
698;DHT22;331;48.414;9.938;2023-02-08T05:05:55;-2.00;99.90
698;DHT22;331;48.414;9.938;2023-02-08T05:08:21;-2.00;99.90
698;DHT22;331;48.414;9.938;2023-02-08T05:10:48;-2.00;99.90
698;DHT22;331;48.414;9.938;2023-02-08T05:13:15;-2.00;99.90
698;DHT22;331;48.414;9.938;2023-02-08T05:15:42;-2.00;99.90
698;DHT22;331;48.414;9.938;2023-02-08T05:18:08;-2.00;99.90
698;DHT22;331;48.414;9.938;2023-02-08T05:20:37;-2.00;99.90
698;DHT22;331;48.414;9.938;2023-02-08T05:23:03;-2.00;99.90
698;DHT22;331;48.414;9.938;2023-02-08T05:25:31;-2.00;99.90
698;DHT22;331;48.414;9.938;2023-02-08T05:27:57;-2.00;99.90
698;DHT22;331;48.414;9.938;2023-02-08T05:30:24;-2.00;99.90
698;DHT22;331;48.414;9.938;2023-02-08T05:32:51;-2.10;99.90
698;DHT22;331;48.414;9.938;2023-02-08T05:35:18;-2.10;99.90
698;DHT22;331;48.414;9.938;2023-02-08T05:37:46;-2.10;99.90
698;DHT22;331;48.414;9.938;2023-02-08T05:40:13;-2.10;99.90
698;DHT22;331;48.414;9.938;2023-02-08T05:42:40;-2.10;99.90
698;DHT22;331;48.414;9.938;2023-02-08T05:45:07;-2.10;99.90
698;DHT22;331;48.414;9.938;2023-02-08T05:47:35;-2.10;99.90
698;DHT22;331;48.414;9.938;2023-02-08T05:50:02;-2.10;99.90
698;DHT22;331;48.414;9.938;2023-02-08T05:52:29;-2.10;99.90
698;DHT22;331;48.414;9.938;2023-02-08T05:54:57;-2.10;99.90
698;DHT22;331;48.414;9.938;2023-02-08T05:57:24;-2.10;99.90
698;DHT22;331;48.414;9.938;2023-02-08T05:59:50;-2.10;99.90
698;DHT22;331;48.414;9.938;2023-02-08T06:02:17;-2.10;99.90
698;DHT22;331;48.414;9.938;2023-02-08T06:04:44;-2.10;99.90
698;DHT22;331;48.414;9.938;2023-02-08T06:07:11;-2.10;99.90
698;DHT22;331;48.414;9.938;2023-02-08T06:09:38;-2.10;99.90
698;DHT22;331;48.414;9.938;2023-02-08T06:14:33;-2.20;99.90
698;DHT22;331;48.414;9.938;2023-02-08T06:17:00;-2.20;99.90
698;DHT22;331;48.414;9.938;2023-02-08T06:19:27;-2.30;99.90
698;DHT22;331;48.414;9.938;2023-02-08T06:21:54;-2.10;99.90
698;DHT22;331;48.414;9.938;2023-02-08T06:24:21;-2.20;99.90
698;DHT22;331;48.414;9.938;2023-02-08T06:26:47;-2.20;99.90
698;DHT22;331;48.414;9.938;2023-02-08T06:29:14;-2.10;99.90
698;DHT22;331;48.414;9.938;2023-02-08T06:31:42;-2.30;99.90
698;DHT22;331;48.414;9.938;2023-02-08T06:34:09;-2.10;99.90
698;DHT22;331;48.414;9.938;2023-02-08T06:36:36;-2.10;99.90
698;DHT22;331;48.414;9.938;2023-02-08T06:39:03;-2.40;99.90
698;DHT22;331;48.414;9.938;2023-02-08T06:41:30;-2.20;99.90
698;DHT22;331;48.414;9.938;2023-02-08T06:43:56;-2.20;99.90
698;DHT22;331;48.414;9.938;2023-02-08T06:46:24;-2.10;99.90
698;DHT22;331;48.414;9.938;2023-02-08T06:48:53;-2.20;99.90
698;DHT22;331;48.414;9.938;2023-02-08T06:51:21;-2.20;99.90
698;DHT22;331;48.414;9.938;2023-02-08T06:53:48;-2.30;99.90
698;DHT22;331;48.414;9.938;2023-02-08T06:56:14;-2.30;99.90
698;DHT22;331;48.414;9.938;2023-02-08T06:58:41;-2.30;99.90
698;DHT22;331;48.414;9.938;2023-02-08T07:01:10;-2.40;99.90
698;DHT22;331;48.414;9.938;2023-02-08T07:03:37;-2.30;99.90
698;DHT22;331;48.414;9.938;2023-02-08T07:06:05;-2.40;99.90
698;DHT22;331;48.414;9.938;2023-02-08T07:08:36;-2.30;99.90
698;DHT22;331;48.414;9.938;2023-02-08T07:11:05;-2.40;99.90
698;DHT22;331;48.414;9.938;2023-02-08T07:13:32;-2.40;99.90
698;DHT22;331;48.414;9.938;2023-02-08T07:15:59;-2.40;99.90
698;DHT22;331;48.414;9.938;2023-02-08T07:18:25;-2.30;99.90
698;DHT22;331;48.414;9.938;2023-02-08T07:20:52;-2.50;99.90
698;DHT22;331;48.414;9.938;2023-02-08T07:23:20;-2.50;99.90
698;DHT22;331;48.414;9.938;2023-02-08T07:28:14;-2.30;99.90
698;DHT22;331;48.414;9.938;2023-02-08T07:30:41;-2.30;99.90
698;DHT22;331;48.414;9.938;2023-02-08T07:33:08;-2.30;99.90
698;DHT22;331;48.414;9.938;2023-02-08T07:35:34;-2.40;99.90
698;DHT22;331;48.414;9.938;2023-02-08T07:38:01;-2.40;99.90
698;DHT22;331;48.414;9.938;2023-02-08T07:40:29;-2.40;99.90
698;DHT22;331;48.414;9.938;2023-02-08T07:42:56;-2.40;99.90
698;DHT22;331;48.414;9.938;2023-02-08T07:45:39;-2.40;99.90
698;DHT22;331;48.414;9.938;2023-02-08T07:48:06;-2.40;99.90
698;DHT22;331;48.414;9.938;2023-02-08T07:50:33;-2.40;99.90
698;DHT22;331;48.414;9.938;2023-02-08T07:53:00;-2.40;99.90
698;DHT22;331;48.414;9.938;2023-02-08T07:55:27;-2.40;99.90
698;DHT22;331;48.414;9.938;2023-02-08T07:57:55;-2.40;99.90
698;DHT22;331;48.414;9.938;2023-02-08T08:00:23;-2.40;99.90
698;DHT22;331;48.414;9.938;2023-02-08T08:02:51;-2.40;99.90
698;DHT22;331;48.414;9.938;2023-02-08T08:05:18;-2.40;99.90
698;DHT22;331;48.414;9.938;2023-02-08T08:07:45;-2.40;99.90
698;DHT22;331;48.414;9.938;2023-02-08T08:10:11;-2.50;99.90
698;DHT22;331;48.414;9.938;2023-02-08T08:12:38;-2.50;99.90
698;DHT22;331;48.414;9.938;2023-02-08T08:15:07;-2.50;99.90
698;DHT22;331;48.414;9.938;2023-02-08T08:17:34;-2.50;99.90
698;DHT22;331;48.414;9.938;2023-02-08T08:20:00;-2.50;99.90
698;DHT22;331;48.414;9.938;2023-02-08T08:22:27;-2.40;99.90
698;DHT22;331;48.414;9.938;2023-02-08T08:24:54;-2.50;99.90
698;DHT22;331;48.414;9.938;2023-02-08T08:27:22;-2.50;99.90
698;DHT22;331;48.414;9.938;2023-02-08T08:29:49;-2.40;99.90
698;DHT22;331;48.414;9.938;2023-02-08T08:32:17;-2.40;99.90
698;DHT22;331;48.414;9.938;2023-02-08T08:34:44;-2.40;99.90
698;DHT22;331;48.414;9.938;2023-02-08T08:37:11;-2.40;99.90
698;DHT22;331;48.414;9.938;2023-02-08T08:39:37;-2.50;99.90
698;DHT22;331;48.414;9.938;2023-02-08T08:42:04;-2.40;99.90
698;DHT22;331;48.414;9.938;2023-02-08T08:44:31;-2.50;99.90
698;DHT22;331;48.414;9.938;2023-02-08T08:46:58;-2.50;99.90
698;DHT22;331;48.414;9.938;2023-02-08T08:49:27;-2.40;99.90
698;DHT22;331;48.414;9.938;2023-02-08T08:51:54;-2.40;99.90
698;DHT22;331;48.414;9.938;2023-02-08T08:54:21;-2.40;99.90
698;DHT22;331;48.414;9.938;2023-02-08T08:56:48;-2.40;99.90
698;DHT22;331;48.414;9.938;2023-02-08T08:59:14;-2.40;99.90
698;DHT22;331;48.414;9.938;2023-02-08T09:01:41;-2.40;99.90
698;DHT22;331;48.414;9.938;2023-02-08T09:04:08;-2.40;99.90
698;DHT22;331;48.414;9.938;2023-02-08T09:06:36;-2.50;99.90
698;DHT22;331;48.414;9.938;2023-02-08T09:09:03;-2.50;99.90
698;DHT22;331;48.414;9.938;2023-02-08T09:11:30;-2.50;99.90
698;DHT22;331;48.414;9.938;2023-02-08T09:13:57;-2.50;99.90
698;DHT22;331;48.414;9.938;2023-02-08T09:16:24;-2.50;99.90
698;DHT22;331;48.414;9.938;2023-02-08T09:18:51;-2.40;99.90
698;DHT22;331;48.414;9.938;2023-02-08T09:21:18;-2.50;99.90
698;DHT22;331;48.414;9.938;2023-02-08T09:23:47;-2.50;99.90
698;DHT22;331;48.414;9.938;2023-02-08T09:26:15;-2.50;99.90
698;DHT22;331;48.414;9.938;2023-02-08T09:28:42;-2.40;99.90
698;DHT22;331;48.414;9.938;2023-02-08T09:31:09;-2.50;99.90
698;DHT22;331;48.414;9.938;2023-02-08T09:33:36;-2.40;99.90
698;DHT22;331;48.414;9.938;2023-02-08T09:36:03;-2.40;99.90
698;DHT22;331;48.414;9.938;2023-02-08T09:38:30;-2.40;99.90
698;DHT22;331;48.414;9.938;2023-02-08T09:41:00;-2.40;99.90
698;DHT22;331;48.414;9.938;2023-02-08T09:43:30;-2.40;99.90
698;DHT22;331;48.414;9.938;2023-02-08T09:45:59;-2.40;99.90
698;DHT22;331;48.414;9.938;2023-02-08T09:48:28;-2.40;99.90
698;DHT22;331;48.414;9.938;2023-02-08T09:50:57;-2.40;99.90
698;DHT22;331;48.414;9.938;2023-02-08T09:53:27;-2.40;99.90
698;DHT22;331;48.414;9.938;2023-02-08T09:55:59;-2.40;99.90
698;DHT22;331;48.414;9.938;2023-02-08T09:58:27;-2.40;99.90
698;DHT22;331;48.414;9.938;2023-02-08T10:00:55;-2.40;99.90
698;DHT22;331;48.414;9.938;2023-02-08T10:03:28;-2.40;99.90
698;DHT22;331;48.414;9.938;2023-02-08T10:05:55;-2.40;99.90
698;DHT22;331;48.414;9.938;2023-02-08T10:08:22;-2.40;99.90
698;DHT22;331;48.414;9.938;2023-02-08T10:10:52;-2.40;99.90
698;DHT22;331;48.414;9.938;2023-02-08T10:13:28;-2.30;99.90
698;DHT22;331;48.414;9.938;2023-02-08T10:15:57;-2.30;99.90
698;DHT22;331;48.414;9.938;2023-02-08T10:18:31;-2.40;99.90
698;DHT22;331;48.414;9.938;2023-02-08T10:21:10;-2.30;99.90
698;DHT22;331;48.414;9.938;2023-02-08T10:23:43;-2.30;99.90
698;DHT22;331;48.414;9.938;2023-02-08T10:26:16;-2.30;99.90
698;DHT22;331;48.414;9.938;2023-02-08T10:28:53;-2.30;99.90
698;DHT22;331;48.414;9.938;2023-02-08T10:31:25;-2.30;99.90
698;DHT22;331;48.414;9.938;2023-02-08T10:33:59;-2.30;99.90
698;DHT22;331;48.414;9.938;2023-02-08T10:36:27;-2.30;99.90
698;DHT22;331;48.414;9.938;2023-02-08T10:38:56;-2.30;99.90
698;DHT22;331;48.414;9.938;2023-02-08T10:41:28;-2.20;99.90
698;DHT22;331;48.414;9.938;2023-02-08T10:43:59;-2.30;99.90
698;DHT22;331;48.414;9.938;2023-02-08T10:46:28;-2.20;99.90
698;DHT22;331;48.414;9.938;2023-02-08T10:49:02;-2.20;99.90
698;DHT22;331;48.414;9.938;2023-02-08T10:51:32;-2.20;99.90
698;DHT22;331;48.414;9.938;2023-02-08T10:53:59;-2.20;99.90
698;DHT22;331;48.414;9.938;2023-02-08T10:56:34;-2.20;99.90
698;DHT22;331;48.414;9.938;2023-02-08T10:59:05;-2.20;99.90
698;DHT22;331;48.414;9.938;2023-02-08T11:01:32;-2.20;99.90
698;DHT22;331;48.414;9.938;2023-02-08T11:04:00;-2.20;99.90
698;DHT22;331;48.414;9.938;2023-02-08T11:06:27;-2.20;99.90
698;DHT22;331;48.414;9.938;2023-02-08T11:08:54;-2.20;99.90
698;DHT22;331;48.414;9.938;2023-02-08T11:11:23;-2.10;99.90
698;DHT22;331;48.414;9.938;2023-02-08T11:13:51;-2.10;99.90
698;DHT22;331;48.414;9.938;2023-02-08T11:16:21;-2.20;99.90
698;DHT22;331;48.414;9.938;2023-02-08T11:18:48;-2.10;99.90
698;DHT22;331;48.414;9.938;2023-02-08T11:21:21;-2.10;99.90
698;DHT22;331;48.414;9.938;2023-02-08T11:23:52;-2.10;99.90
698;DHT22;331;48.414;9.938;2023-02-08T11:26:20;-2.10;99.90
698;DHT22;331;48.414;9.938;2023-02-08T11:28:58;-2.10;99.90
698;DHT22;331;48.414;9.938;2023-02-08T11:31:27;-2.00;99.90
698;DHT22;331;48.414;9.938;2023-02-08T11:33:57;-2.00;99.90
698;DHT22;331;48.414;9.938;2023-02-08T11:36:25;-2.00;99.90
698;DHT22;331;48.414;9.938;2023-02-08T11:38:52;-1.90;99.90
698;DHT22;331;48.414;9.938;2023-02-08T11:41:19;-2.00;99.90
698;DHT22;331;48.414;9.938;2023-02-08T11:43:56;-1.90;99.90
698;DHT22;331;48.414;9.938;2023-02-08T11:46:23;-1.90;99.90
698;DHT22;331;48.414;9.938;2023-02-08T11:48:53;-1.90;99.90
698;DHT22;331;48.414;9.938;2023-02-08T11:51:24;-1.90;99.90
698;DHT22;331;48.414;9.938;2023-02-08T11:53:52;-1.90;99.90
698;DHT22;331;48.414;9.938;2023-02-08T11:56:19;-1.90;99.90
698;DHT22;331;48.414;9.938;2023-02-08T11:58:56;-1.90;99.90
698;DHT22;331;48.414;9.938;2023-02-08T12:01:25;-1.90;99.90
698;DHT22;331;48.414;9.938;2023-02-08T12:03:54;-1.90;99.90
698;DHT22;331;48.414;9.938;2023-02-08T12:06:26;-1.80;99.90
698;DHT22;331;48.414;9.938;2023-02-08T12:09:00;-1.90;99.90
698;DHT22;331;48.414;9.938;2023-02-08T12:11:31;-1.80;99.90
698;DHT22;331;48.414;9.938;2023-02-08T12:14:03;-1.80;99.90
698;DHT22;331;48.414;9.938;2023-02-08T12:16:35;-1.80;99.90
698;DHT22;331;48.414;9.938;2023-02-08T12:19:12;-1.80;99.90
698;DHT22;331;48.414;9.938;2023-02-08T12:21:45;-1.80;99.90
698;DHT22;331;48.414;9.938;2023-02-08T12:24:13;-1.80;99.90
698;DHT22;331;48.414;9.938;2023-02-08T12:26:47;-1.80;99.90
698;DHT22;331;48.414;9.938;2023-02-08T12:29:20;-1.80;99.90
698;DHT22;331;48.414;9.938;2023-02-08T12:31:55;-1.70;99.90
698;DHT22;331;48.414;9.938;2023-02-08T12:34:29;-1.70;99.90
698;DHT22;331;48.414;9.938;2023-02-08T12:37:02;-1.70;99.90
698;DHT22;331;48.414;9.938;2023-02-08T12:39:51;-1.70;99.90
698;DHT22;331;48.414;9.938;2023-02-08T12:42:45;-1.70;99.90
698;DHT22;331;48.414;9.938;2023-02-08T12:45:28;-1.60;99.90
698;DHT22;331;48.414;9.938;2023-02-08T12:48:02;-1.60;99.90
698;DHT22;331;48.414;9.938;2023-02-08T12:50:37;-1.60;99.90
698;DHT22;331;48.414;9.938;2023-02-08T12:53:08;-1.60;99.90
698;DHT22;331;48.414;9.938;2023-02-08T12:55:38;-1.60;99.90
698;DHT22;331;48.414;9.938;2023-02-08T12:58:11;-1.60;99.90
698;DHT22;331;48.414;9.938;2023-02-08T13:00:43;-1.60;99.90
698;DHT22;331;48.414;9.938;2023-02-08T13:03:11;-1.50;99.90
698;DHT22;331;48.414;9.938;2023-02-08T13:05:43;-1.50;99.90
698;DHT22;331;48.414;9.938;2023-02-08T13:08:15;-1.50;99.90
698;DHT22;331;48.414;9.938;2023-02-08T13:10:47;-1.50;99.90
698;DHT22;331;48.414;9.938;2023-02-08T13:13:20;-1.50;99.90
698;DHT22;331;48.414;9.938;2023-02-08T13:15:50;-1.50;99.90
698;DHT22;331;48.414;9.938;2023-02-08T13:18:19;-1.50;99.90
698;DHT22;331;48.414;9.938;2023-02-08T13:20:49;-1.40;99.90
698;DHT22;331;48.414;9.938;2023-02-08T13:23:18;-1.40;99.90
698;DHT22;331;48.414;9.938;2023-02-08T13:25:47;-1.40;99.90
698;DHT22;331;48.414;9.938;2023-02-08T13:28:16;-1.40;99.90
698;DHT22;331;48.414;9.938;2023-02-08T13:30:43;-1.40;99.90
698;DHT22;331;48.414;9.938;2023-02-08T13:33:13;-1.30;99.90
698;DHT22;331;48.414;9.938;2023-02-08T13:35:41;-1.30;99.90
698;DHT22;331;48.414;9.938;2023-02-08T13:38:17;-1.30;99.90
698;DHT22;331;48.414;9.938;2023-02-08T13:40:46;-1.30;99.90
698;DHT22;331;48.414;9.938;2023-02-08T13:43:20;-1.30;99.90
698;DHT22;331;48.414;9.938;2023-02-08T13:45:50;-1.30;99.90
698;DHT22;331;48.414;9.938;2023-02-08T13:48:18;-1.30;99.90
698;DHT22;331;48.414;9.938;2023-02-08T13:50:48;-1.20;99.90
698;DHT22;331;48.414;9.938;2023-02-08T13:53:18;-1.20;99.90
698;DHT22;331;48.414;9.938;2023-02-08T13:56:06;-1.20;99.90
698;DHT22;331;48.414;9.938;2023-02-08T13:58:37;-1.20;99.90
698;DHT22;331;48.414;9.938;2023-02-08T14:01:07;-1.20;99.90
698;DHT22;331;48.414;9.938;2023-02-08T14:03:38;-1.20;99.90
698;DHT22;331;48.414;9.938;2023-02-08T14:06:05;-1.20;99.90
698;DHT22;331;48.414;9.938;2023-02-08T14:08:38;-1.10;99.90
698;DHT22;331;48.414;9.938;2023-02-08T14:11:09;-1.10;99.90
698;DHT22;331;48.414;9.938;2023-02-08T14:13:38;-1.10;99.90
698;DHT22;331;48.414;9.938;2023-02-08T14:16:29;-1.00;99.90
698;DHT22;331;48.414;9.938;2023-02-08T14:18:56;-1.00;99.90
698;DHT22;331;48.414;9.938;2023-02-08T14:21:31;-1.00;99.90
698;DHT22;331;48.414;9.938;2023-02-08T14:24:02;-1.00;99.90
698;DHT22;331;48.414;9.938;2023-02-08T14:26:29;-1.00;99.90
698;DHT22;331;48.414;9.938;2023-02-08T14:28:56;-1.00;99.90
698;DHT22;331;48.414;9.938;2023-02-08T14:31:34;-1.00;99.90
698;DHT22;331;48.414;9.938;2023-02-08T14:34:01;-0.90;99.90
698;DHT22;331;48.414;9.938;2023-02-08T14:36:28;-0.90;99.90
698;DHT22;331;48.414;9.938;2023-02-08T14:41:46;-0.90;99.90
698;DHT22;331;48.414;9.938;2023-02-08T14:47:00;-0.90;99.90
698;DHT22;331;48.414;9.938;2023-02-08T14:49:26;-0.90;99.90
698;DHT22;331;48.414;9.938;2023-02-08T14:51:55;-0.90;99.90
698;DHT22;331;48.414;9.938;2023-02-08T14:54:24;-0.80;99.90
698;DHT22;331;48.414;9.938;2023-02-08T14:56:55;-0.90;99.90
698;DHT22;331;48.414;9.938;2023-02-08T14:59:24;-0.80;99.90
698;DHT22;331;48.414;9.938;2023-02-08T15:01:53;-0.80;99.90
698;DHT22;331;48.414;9.938;2023-02-08T15:04:21;-0.80;99.90
698;DHT22;331;48.414;9.938;2023-02-08T15:06:57;-0.80;99.90
698;DHT22;331;48.414;9.938;2023-02-08T15:09:26;-0.80;99.90
698;DHT22;331;48.414;9.938;2023-02-08T15:11:58;-0.80;99.90
698;DHT22;331;48.414;9.938;2023-02-08T15:14:26;-0.80;99.90
698;DHT22;331;48.414;9.938;2023-02-08T15:16:53;-0.80;99.90
698;DHT22;331;48.414;9.938;2023-02-08T15:19:22;-0.70;99.90
698;DHT22;331;48.414;9.938;2023-02-08T15:21:50;-0.80;99.90
698;DHT22;331;48.414;9.938;2023-02-08T15:24:17;-0.80;99.90
698;DHT22;331;48.414;9.938;2023-02-08T15:26:47;-0.80;99.90
698;DHT22;331;48.414;9.938;2023-02-08T15:29:20;-0.80;99.90
698;DHT22;331;48.414;9.938;2023-02-08T15:31:47;-0.80;99.90
698;DHT22;331;48.414;9.938;2023-02-08T15:34:14;-0.70;99.90
698;DHT22;331;48.414;9.938;2023-02-08T15:36:44;-0.70;99.90
698;DHT22;331;48.414;9.938;2023-02-08T15:39:14;-0.80;99.90
698;DHT22;331;48.414;9.938;2023-02-08T15:41:43;-0.70;99.90
698;DHT22;331;48.414;9.938;2023-02-08T15:44:15;-0.70;99.90
698;DHT22;331;48.414;9.938;2023-02-08T15:46:44;-0.70;99.90
698;DHT22;331;48.414;9.938;2023-02-08T15:49:12;-0.70;99.90
698;DHT22;331;48.414;9.938;2023-02-08T15:51:40;-0.70;99.90
698;DHT22;331;48.414;9.938;2023-02-08T15:54:10;-0.70;99.90
698;DHT22;331;48.414;9.938;2023-02-08T15:56:38;-0.70;99.90
698;DHT22;331;48.414;9.938;2023-02-08T15:59:05;-0.70;99.90
698;DHT22;331;48.414;9.938;2023-02-08T16:01:33;-0.70;99.90
698;DHT22;331;48.414;9.938;2023-02-08T16:04:03;-0.70;99.90
698;DHT22;331;48.414;9.938;2023-02-08T16:06:36;-0.70;99.90
698;DHT22;331;48.414;9.938;2023-02-08T16:09:04;-0.70;99.90
698;DHT22;331;48.414;9.938;2023-02-08T16:11:31;-0.70;99.90
698;DHT22;331;48.414;9.938;2023-02-08T16:13:59;-0.70;99.90
698;DHT22;331;48.414;9.938;2023-02-08T16:16:35;-0.70;99.90
698;DHT22;331;48.414;9.938;2023-02-08T16:19:05;-0.60;99.90
698;DHT22;331;48.414;9.938;2023-02-08T16:21:32;-0.60;99.90
698;DHT22;331;48.414;9.938;2023-02-08T16:24:03;-0.70;99.90
698;DHT22;331;48.414;9.938;2023-02-08T16:26:31;-0.60;99.90
698;DHT22;331;48.414;9.938;2023-02-08T16:29:00;-0.60;99.90
698;DHT22;331;48.414;9.938;2023-02-08T16:31:28;-0.60;99.90
698;DHT22;331;48.414;9.938;2023-02-08T16:33:55;-0.60;99.90
698;DHT22;331;48.414;9.938;2023-02-08T16:36:24;-0.60;99.90
698;DHT22;331;48.414;9.938;2023-02-08T16:39:19;-0.60;99.90
698;DHT22;331;48.414;9.938;2023-02-08T16:41:59;-0.60;99.90
698;DHT22;331;48.414;9.938;2023-02-08T16:44:28;-0.60;99.90
698;DHT22;331;48.414;9.938;2023-02-08T16:46:55;-0.60;99.90
698;DHT22;331;48.414;9.938;2023-02-08T16:49:22;-0.60;99.90
698;DHT22;331;48.414;9.938;2023-02-08T16:51:50;-0.60;99.90
698;DHT22;331;48.414;9.938;2023-02-08T16:54:21;-0.60;99.90
698;DHT22;331;48.414;9.938;2023-02-08T16:56:49;-0.60;99.90
698;DHT22;331;48.414;9.938;2023-02-08T16:59:20;-0.60;99.90
698;DHT22;331;48.414;9.938;2023-02-08T17:01:47;-0.60;99.90
698;DHT22;331;48.414;9.938;2023-02-08T17:04:14;-0.60;99.90